Time;durP1;ratioP1;P1;durP2;ratioP2;P2;SDS_P1;SDS_P2;PMS_P1;PMS_P2;Temp;Humidity;BMP_temperature;BMP_pressure;BME280_temperature;BME280_humidity;BME280_pressure;Samples;Min_cycle;Max_cycle;Signal;HPM_P1;HPM_P2
2022/11/15 00:01:18;;;;;;;12.17;8.17;;;;;;;;;;5025567;28;20961;-42
2022/11/15 00:03:45;;;;;;;13.53;8.60;;;;;;;;;;5019132;28;20406;-42
2022/11/15 00:06:11;;;;;;;10.50;8.40;;;;;;;;;;5021544;28;20399;-41
2022/11/15 00:08:37;;;;;;;15.40;8.20;;;;;;;;;;5022199;28;20477;-42
2022/11/15 00:11:03;;;;;;;9.73;8.20;;;;;;;;;;5022694;28;20439;-42
2022/11/15 00:13:29;;;;;;;12.60;9.70;;;;;;;;;;5025255;28;20505;-42
2022/11/15 00:16:00;;;;;;;12.43;8.20;;;;;;;;;;5036669;28;20420;-42
2022/11/15 00:18:26;;;;;;;9.90;8.27;;;;;;;;;;5022502;28;20429;-42
2022/11/15 00:20:52;;;;;;;12.23;8.70;;;;;;;;;;5021958;28;20416;-42
2022/11/15 00:23:18;;;;;;;9.17;8.23;;;;;;;;;;5021870;28;20778;-42
2022/11/15 00:25:44;;;;;;;12.57;8.23;;;;;;;;;;5021620;28;20521;-42
2022/11/15 00:28:10;;;;;;;20.40;13.87;;;;;;;;;;5027747;28;20468;-42
2022/11/15 00:30:36;;;;;;;9.53;7.90;;;;;;;;;;5024535;28;20438;-42
2022/11/15 00:33:03;;;;;;;21.57;14.00;;;;;;;;;;5019611;28;20462;-41
2022/11/15 00:35:29;;;;;;;14.03;9.90;;;;;;;;;;5019959;28;20419;-42
2022/11/15 00:37:55;;;;;;;9.97;7.90;;;;;;;;;;5022612;28;20412;-42
2022/11/15 00:40:20;;;;;;;12.20;8.43;;;;;;;;;;5024446;28;20429;-42
2022/11/15 00:42:46;;;;;;;10.83;8.23;;;;;;;;;;5022464;28;20944;-42
2022/11/15 00:45:12;;;;;;;13.23;7.70;;;;;;;;;;5025518;28;20879;-42
2022/11/15 00:47:38;;;;;;;11.67;8.10;;;;;;;;;;5023659;28;20462;-42
2022/11/15 00:50:05;;;;;;;11.03;7.13;;;;;;;;;;5017219;28;20512;-42
2022/11/15 00:52:31;;;;;;;7.10;6.40;;;;;;;;;;5024299;28;20434;-42
2022/11/15 00:54:56;;;;;;;10.73;7.43;;;;;;;;;;5022748;28;20443;-42
2022/11/15 00:57:22;;;;;;;10.70;6.60;;;;;;;;;;5023895;28;20416;-43
2022/11/15 00:59:48;;;;;;;11.50;7.83;;;;;;;;;;5021296;28;20407;-42
2022/11/15 01:02:14;;;;;;;12.70;7.17;;;;;;;;;;5023310;28;20436;-42
2022/11/15 01:04:40;;;;;;;9.30;8.00;;;;;;;;;;5021525;28;20886;-43
2022/11/15 01:07:06;;;;;;;8.40;6.60;;;;;;;;;;5021070;28;20822;-42
2022/11/15 01:09:33;;;;;;;14.70;7.00;;;;;;;;;;5025393;28;20496;-42
2022/11/15 01:11:59;;;;;;;16.87;12.23;;;;;;;;;;5019990;28;20443;-42
2022/11/15 01:14:25;;;;;;;9.90;7.30;;;;;;;;;;5021812;28;20402;-42
2022/11/15 01:16:51;;;;;;;7.67;6.97;;;;;;;;;;5021341;28;20419;-42
2022/11/15 01:19:17;;;;;;;13.87;8.00;;;;;;;;;;5020973;28;20408;-43
2022/11/15 01:21:43;;;;;;;7.80;7.00;;;;;;;;;;5020123;28;20511;-43
2022/11/15 01:24:12;;;;;;;11.00;7.20;;;;;;;;;;5027074;28;20416;-43
2022/11/15 01:26:38;;;;;;;11.73;8.43;;;;;;;;;;5024301;28;20416;-42
2022/11/15 01:29:04;;;;;;;8.33;7.23;;;;;;;;;;5019038;28;20505;-42
2022/11/15 01:31:30;;;;;;;12.13;7.83;;;;;;;;;;5018816;28;20483;-43
2022/11/15 01:33:56;;;;;;;11.70;8.10;;;;;;;;;;5020135;28;20415;-43
2022/11/15 01:36:23;;;;;;;9.40;8.40;;;;;;;;;;5020362;28;20918;-42
2022/11/15 01:38:55;;;;;;;10.43;7.47;;;;;;;;;;5020666;28;20415;-42
2022/11/15 01:41:23;;;;;;;9.57;7.60;;;;;;;;;;5023186;28;20527;-42
2022/11/15 01:43:52;;;;;;;17.40;12.10;;;;;;;;;;5023506;28;20412;-42
2022/11/15 01:46:24;;;;;;;10.60;8.30;;;;;;;;;;5017893;28;20943;-42
2022/11/15 01:48:52;;;;;;;9.57;6.87;;;;;;;;;;5015223;28;20463;-42
2022/11/15 01:51:19;;;;;;;14.53;7.63;;;;;;;;;;5023121;28;20539;-43
2022/11/15 01:53:47;;;;;;;9.73;7.33;;;;;;;;;;5019816;28;20793;-43
2022/11/15 01:56:22;;;;;;;15.90;6.43;;;;;;;;;;5012082;28;20893;-43
2022/11/15 01:58:48;;;;;;;9.97;7.87;;;;;;;;;;5020272;28;20414;-42
2022/11/15 02:01:15;;;;;;;10.40;7.13;;;;;;;;;;5020440;28;20448;-42
2022/11/15 02:03:51;;;;;;;10.87;7.10;;;;;;;;;;5018805;28;20417;-42
2022/11/15 02:06:17;;;;;;;9.87;7.97;;;;;;;;;;5013820;28;20507;-42
2022/11/15 02:08:43;;;;;;;12.20;7.50;;;;;;;;;;5024339;28;20470;-42
2022/11/15 02:11:10;;;;;;;8.83;7.30;;;;;;;;;;5018044;28;20451;-42
2022/11/15 02:13:36;;;;;;;10.63;7.30;;;;;;;;;;5018097;28;20412;-42
2022/11/15 02:16:05;;;;;;;14.30;7.67;;;;;;;;;;5019868;28;20470;-42
2022/11/15 02:18:34;;;;;;;11.40;8.00;;;;;;;;;;5019665;28;20936;-42
2022/11/15 02:21:18;;;;;;;9.70;6.97;;;;;;;;;;5020135;28;20485;-42
2022/11/15 02:23:57;;;;;;;11.93;7.93;;;;;;;;;;5020105;28;20776;-43
2022/11/15 02:26:35;;;;;;;10.83;7.87;;;;;;;;;;5017976;28;20939;-42
2022/11/15 02:29:16;;;;;;;11.80;7.30;;;;;;;;;;5021664;28;20423;-42
2022/11/15 02:31:42;;;;;;;11.30;7.20;;;;;;;;;;5018989;28;20799;-43
2022/11/15 02:34:23;;;;;;;9.30;8.03;;;;;;;;;;5019741;28;20407;-42
2022/11/15 02:37:01;;;;;;;8.53;7.03;;;;;;;;;;5024679;28;20407;-43
2022/11/15 02:39:56;;;;;;;13.87;7.80;;;;;;;;;;5020996;28;20492;-43
2022/11/15 02:45:56;;;;;;;10.80;6.73;;;;;;;;;;5011843;28;20499;-42
2022/11/15 02:48:22;;;;;;;9.53;7.93;;;;;;;;;;5023065;28;20476;-42
2022/11/15 02:50:49;;;;;;;10.67;8.00;;;;;;;;;;5024233;28;20513;-43
2022/11/15 02:53:15;;;;;;;8.73;7.50;;;;;;;;;;5018793;28;20851;-42
2022/11/15 02:55:43;;;;;;;11.57;8.20;;;;;;;;;;5017148;28;20508;-42
2022/11/15 02:58:28;;;;;;;13.83;8.80;;;;;;;;;;5019512;28;20781;-42
2022/11/15 03:00:54;;;;;;;9.90;7.47;;;;;;;;;;5020610;28;20455;-42
2022/11/15 03:03:42;;;;;;;10.77;8.37;;;;;;;;;;5022775;28;20449;-43
2022/11/15 03:06:17;;;;;;;11.83;7.93;;;;;;;;;;5023929;28;20412;-43
2022/11/15 03:09:06;;;;;;;11.37;8.17;;;;;;;;;;5019273;28;20470;-42
2022/11/15 03:11:36;;;;;;;11.90;8.40;;;;;;;;;;5019513;28;20454;-42
2022/11/15 03:14:20;;;;;;;12.03;8.70;;;;;;;;;;5023996;28;20412;-43
2022/11/15 03:16:52;;;;;;;10.90;7.70;;;;;;;;;;5022900;28;20896;-43
2022/11/15 03:19:35;;;;;;;9.70;8.70;;;;;;;;;;5026786;28;20508;-42
2022/11/15 03:22:03;;;;;;;11.50;8.07;;;;;;;;;;5026161;28;20988;-43
2022/11/15 03:24:31;;;;;;;10.40;8.03;;;;;;;;;;5022528;28;20784;-42
2022/11/15 03:26:57;;;;;;;9.37;8.37;;;;;;;;;;5018027;28;20462;-43
2022/11/15 03:29:26;;;;;;;11.60;7.20;;;;;;;;;;5026049;28;20413;-43
2022/11/15 03:31:56;;;;;;;10.63;7.07;;;;;;;;;;5022471;28;20442;-43
2022/11/15 03:34:27;;;;;;;10.83;8.13;;;;;;;;;;5024841;28;20420;-42
2022/11/15 03:36:53;;;;;;;8.23;7.07;;;;;;;;;;5023582;28;20408;-43
2022/11/15 03:39:20;;;;;;;9.77;7.97;;;;;;;;;;5029319;28;20555;-42
2022/11/15 03:41:57;;;;;;;8.77;7.73;;;;;;;;;;5022371;28;20963;-42
2022/11/15 03:44:35;;;;;;;8.80;7.20;;;;;;;;;;5022715;28;20415;-43
2022/11/15 03:47:04;;;;;;;10.57;7.40;;;;;;;;;;5027772;28;20462;-42
2022/11/15 03:49:33;;;;;;;10.57;7.57;;;;;;;;;;5023957;28;20471;-42
2022/11/15 03:52:00;;;;;;;8.80;7.60;;;;;;;;;;5019240;28;20500;-43
2022/11/15 03:54:26;;;;;;;9.23;6.93;;;;;;;;;;5025673;28;20939;-42
2022/11/15 03:56:51;;;;;;;10.23;7.50;;;;;;;;;;5025342;28;20416;-42
2022/11/15 03:59:17;;;;;;;8.40;6.60;;;;;;;;;;5025846;28;20400;-43
2022/11/15 04:01:43;;;;;;;10.33;7.40;;;;;;;;;;5022669;28;20432;-42
2022/11/15 04:04:09;;;;;;;9.00;7.30;;;;;;;;;;5025762;28;20929;-42
2022/11/15 04:06:35;;;;;;;7.67;6.97;;;;;;;;;;5023848;28;20416;-43
2022/11/15 04:09:01;;;;;;;7.70;6.80;;;;;;;;;;5017748;28;20423;-44
2022/11/15 04:11:27;;;;;;;8.70;7.80;;;;;;;;;;5024990;28;20552;-43
2022/11/15 04:13:53;;;;;;;7.60;6.80;;;;;;;;;;5022643;28;20971;-43
2022/11/15 04:16:19;;;;;;;7.47;6.10;;;;;;;;;;5024459;28;20408;-43
2022/11/15 04:24:11;;;;;;;7.97;7.00;;;;;;;;;;5021514;28;20416;-42
2022/11/15 04:24:16;;;;;;;7.57;6.30;;;;;;;;;;5014410;28;20833;-43
2022/11/15 04:26:42;;;;;;;9.63;7.00;;;;;;;;;;5021818;28;20446;-42
2022/11/15 04:31:53;;;;;;;9.00;8.10;;;;;;;;;;5024933;28;20427;-43
2022/11/15 04:34:19;;;;;;;9.70;8.13;;;;;;;;;;5020111;28;20499;-43
2022/11/15 04:39:29;;;;;;;8.90;7.23;;;;;;;;;;5024908;28;20409;-43
2022/11/15 04:41:55;;;;;;;9.40;8.20;;;;;;;;;;5021816;28;20440;-42
2022/11/15 04:44:21;;;;;;;11.17;7.50;;;;;;;;;;5023905;28;20443;-42
2022/11/15 04:46:47;;;;;;;7.60;6.90;;;;;;;;;;5021335;28;20424;-42
2022/11/15 04:49:12;;;;;;;11.27;7.30;;;;;;;;;;5023275;28;20420;-43
2022/11/15 04:51:38;;;;;;;10.57;7.10;;;;;;;;;;5020743;28;20472;-43
2022/11/15 04:54:04;;;;;;;9.07;7.47;;;;;;;;;;5022088;28;20899;-43
2022/11/15 04:56:30;;;;;;;8.37;6.87;;;;;;;;;;5024753;28;20936;-43
2022/11/15 04:58:56;;;;;;;7.93;7.10;;;;;;;;;;5020143;28;20412;-43
2022/11/15 05:01:22;;;;;;;10.27;7.47;;;;;;;;;;5021237;28;20476;-43
2022/11/15 05:06:33;;;;;;;8.83;7.93;;;;;;;;;;5015969;28;20955;-42
2022/11/15 05:08:59;;;;;;;10.13;8.47;;;;;;;;;;5022729;28;20499;-42
2022/11/15 05:11:25;;;;;;;9.50;7.23;;;;;;;;;;5027514;28;20573;-42
2022/11/15 05:13:51;;;;;;;11.10;7.70;;;;;;;;;;5023381;28;20514;-42
2022/11/15 05:16:17;;;;;;;9.10;7.60;;;;;;;;;;5019220;28;20949;-43
2022/11/15 05:18:43;;;;;;;8.63;7.77;;;;;;;;;;5017138;28;20417;-43
2022/11/15 05:21:10;;;;;;;8.73;7.83;;;;;;;;;;5023398;28;20969;-43
2022/11/15 05:23:36;;;;;;;9.00;7.50;;;;;;;;;;5022683;28;20447;-43
2022/11/15 05:26:03;;;;;;;9.47;8.33;;;;;;;;;;5022946;28;20845;-42
2022/11/15 05:28:29;;;;;;;7.40;6.67;;;;;;;;;;5021846;28;20549;-43
2022/11/15 05:31:01;;;;;;;7.93;7.10;;;;;;;;;;5022427;28;20444;-44
2022/11/15 05:33:26;;;;;;;8.53;7.30;;;;;;;;;;5018870;28;20426;-43
2022/11/15 05:35:56;;;;;;;11.83;7.10;;;;;;;;;;5022736;28;20436;-42
2022/11/15 05:38:23;;;;;;;10.07;7.47;;;;;;;;;;5023106;28;20478;-43
2022/11/15 05:40:49;;;;;;;10.90;8.37;;;;;;;;;;5014100;28;20417;-43
2022/11/15 05:43:15;;;;;;;9.40;8.07;;;;;;;;;;5020719;28;20775;-42
2022/11/15 05:45:41;;;;;;;9.00;7.43;;;;;;;;;;5024120;28;20501;-43
2022/11/15 05:48:08;;;;;;;8.93;7.13;;;;;;;;;;5039030;28;20473;-43
2022/11/15 05:50:37;;;;;;;10.50;7.47;;;;;;;;;;5036771;28;20479;-42
2022/11/15 05:53:03;;;;;;;8.83;7.47;;;;;;;;;;5025843;28;20507;-43
2022/11/15 05:55:29;;;;;;;9.70;7.47;;;;;;;;;;5021985;28;20518;-42
2022/11/15 05:57:55;;;;;;;7.57;6.80;;;;;;;;;;5017526;28;20965;-43
2022/11/15 06:00:21;;;;;;;7.50;6.77;;;;;;;;;;5018693;28;20426;-42
2022/11/15 06:02:47;;;;;;;7.90;7.17;;;;;;;;;;5019798;28;20435;-42
2022/11/15 06:05:13;;;;;;;8.43;7.50;;;;;;;;;;5023373;28;20407;-42
2022/11/15 06:07:39;;;;;;;10.43;7.83;;;;;;;;;;5020539;28;20464;-42
2022/11/15 06:10:05;;;;;;;7.57;6.87;;;;;;;;;;5022595;28;20449;-43
2022/11/15 06:12:31;;;;;;;7.97;6.90;;;;;;;;;;5025997;28;20442;-43
2022/11/15 06:14:57;;;;;;;8.27;6.17;;;;;;;;;;5015834;28;20959;-42
2022/11/15 06:17:23;;;;;;;7.23;6.13;;;;;;;;;;5023257;28;20923;-42
2022/11/15 06:19:49;;;;;;;6.83;6.13;;;;;;;;;;5020855;28;20788;-43
2022/11/15 06:22:15;;;;;;;7.33;6.57;;;;;;;;;;5023326;28;20798;-43
2022/11/15 06:24:41;;;;;;;6.40;5.07;;;;;;;;;;5019831;28;20802;-43
2022/11/15 06:27:07;;;;;;;6.80;6.00;;;;;;;;;;5022218;28;20468;-43
2022/11/15 06:29:32;;;;;;;5.50;4.97;;;;;;;;;;5019217;28;20405;-43
2022/11/15 06:31:58;;;;;;;6.10;5.50;;;;;;;;;;5021058;28;20424;-42
2022/11/15 06:34:24;;;;;;;5.30;4.80;;;;;;;;;;5022924;28;20447;-43
2022/11/15 06:36:50;;;;;;;5.33;4.83;;;;;;;;;;5019169;28;20410;-43
2022/11/15 06:39:16;;;;;;;5.30;4.83;;;;;;;;;;5036675;28;20384;-43
2022/11/15 06:41:42;;;;;;;5.97;4.90;;;;;;;;;;5022166;28;20457;-43
2022/11/15 06:44:09;;;;;;;5.20;4.50;;;;;;;;;;5024525;28;20777;-43
2022/11/15 06:46:34;;;;;;;4.30;4.00;;;;;;;;;;5023488;28;20423;-43
2022/11/15 06:49:00;;;;;;;4.40;3.97;;;;;;;;;;5029283;28;20557;-43
2022/11/15 06:51:26;;;;;;;6.57;4.53;;;;;;;;;;5024918;28;20433;-43
2022/11/15 06:53:52;;;;;;;6.53;4.67;;;;;;;;;;5021162;28;20383;-44
2022/11/15 06:56:18;;;;;;;5.17;4.67;;;;;;;;;;5023424;28;21112;-42
2022/11/15 06:58:44;;;;;;;6.40;4.33;;;;;;;;;;5023255;28;20891;-43
2022/11/15 07:01:11;;;;;;;4.57;3.63;;;;;;;;;;5022973;28;20582;-43
2022/11/15 07:03:41;;;;;;;3.70;3.40;;;;;;;;;;5023189;28;20963;-43
2022/11/15 07:06:07;;;;;;;4.67;4.17;;;;;;;;;;5027489;28;20430;-42
2022/11/15 07:08:34;;;;;;;5.70;3.97;;;;;;;;;;5024123;28;20601;-43
2022/11/15 07:11:01;;;;;;;4.47;4.10;;;;;;;;;;5018765;28;20449;-42
2022/11/15 07:13:28;;;;;;;3.67;3.40;;;;;;;;;;5026431;28;20407;-42
2022/11/15 07:15:54;;;;;;;4.20;3.80;;;;;;;;;;5024516;28;20836;-42
2022/11/15 07:18:20;;;;;;;3.57;3.27;;;;;;;;;;5026123;28;20494;-43
2022/11/15 07:20:46;;;;;;;3.73;3.43;;;;;;;;;;5022551;28;20452;-43
2022/11/15 07:23:11;;;;;;;3.33;3.03;;;;;;;;;;5019957;28;20420;-43
2022/11/15 07:25:37;;;;;;;3.97;3.50;;;;;;;;;;5022965;28;20429;-42
2022/11/15 07:28:05;;;;;;;3.10;2.90;;;;;;;;;;5023485;28;20468;-42
2022/11/15 07:30:31;;;;;;;3.40;3.10;;;;;;;;;;5026646;28;20432;-42
2022/11/15 07:32:58;;;;;;;3.53;3.33;;;;;;;;;;5022191;28;20434;-42
2022/11/15 07:35:24;;;;;;;4.97;3.10;;;;;;;;;;5023552;28;20464;-42
2022/11/15 07:38:01;;;;;;;3.53;3.23;;;;;;;;;;5022963;28;20405;-43
2022/11/15 07:40:28;;;;;;;3.50;3.00;;;;;;;;;;5016377;28;20450;-42
2022/11/15 07:43:01;;;;;;;3.20;2.90;;;;;;;;;;5023439;28;20486;-43
2022/11/15 07:45:27;;;;;;;4.20;3.00;;;;;;;;;;5026160;28;20420;-43
2022/11/15 07:47:53;;;;;;;4.23;3.33;;;;;;;;;;5026744;28;21041;-42
2022/11/15 07:50:19;;;;;;;2.93;2.73;;;;;;;;;;5021439;28;20403;-43
2022/11/15 07:52:45;;;;;;;6.20;3.00;;;;;;;;;;5017563;28;20435;-43
2022/11/15 07:55:11;;;;;;;3.20;3.00;;;;;;;;;;5025771;28;20411;-42
2022/11/15 07:57:39;;;;;;;2.77;2.57;;;;;;;;;;5024788;28;20413;-42
2022/11/15 08:00:05;;;;;;;3.47;3.17;;;;;;;;;;5024700;28;20427;-43
2022/11/15 08:02:31;;;;;;;2.60;2.27;;;;;;;;;;5022999;28;20434;-42
2022/11/15 08:04:58;;;;;;;2.67;2.47;;;;;;;;;;5024236;28;20784;-43
2022/11/15 08:07:24;;;;;;;3.37;2.90;;;;;;;;;;5016689;28;20551;-42
2022/11/15 08:09:50;;;;;;;3.20;2.90;;;;;;;;;;5014844;28;20507;-42
2022/11/15 08:12:16;;;;;;;2.93;2.63;;;;;;;;;;5023195;28;20446;-43
2022/11/15 08:14:42;;;;;;;6.00;2.43;;;;;;;;;;5021875;28;20420;-43
2022/11/15 08:17:09;;;;;;;3.13;2.93;;;;;;;;;;5024611;28;20491;-43
2022/11/15 08:19:35;;;;;;;4.27;2.83;;;;;;;;;;5021984;28;20402;-43
2022/11/15 08:22:01;;;;;;;3.33;3.07;;;;;;;;;;5020424;28;20503;-43
2022/11/15 08:24:27;;;;;;;3.10;2.60;;;;;;;;;;5016919;28;20430;-42
2022/11/15 08:26:53;;;;;;;4.27;2.60;;;;;;;;;;5027726;28;20421;-42
2022/11/15 08:29:19;;;;;;;2.40;2.20;;;;;;;;;;5021306;28;20411;-43
2022/11/15 08:31:45;;;;;;;2.33;2.20;;;;;;;;;;5018614;28;20433;-43
2022/11/15 08:34:11;;;;;;;2.77;2.57;;;;;;;;;;5022847;28;20375;-43
2022/11/15 08:36:37;;;;;;;3.23;2.17;;;;;;;;;;5021452;28;20413;-43
2022/11/15 08:39:03;;;;;;;8.13;2.93;;;;;;;;;;5023823;28;20786;-42
2022/11/15 08:41:33;;;;;;;2.80;2.60;;;;;;;;;;5024859;28;20447;-43
2022/11/15 08:43:59;;;;;;;2.37;2.27;;;;;;;;;;5026074;28;20421;-42
2022/11/15 08:46:25;;;;;;;3.00;2.53;;;;;;;;;;5024527;28;20522;-43
2022/11/15 08:48:51;;;;;;;2.70;2.40;;;;;;;;;;5017836;28;20464;-43
2022/11/15 08:51:16;;;;;;;2.47;2.27;;;;;;;;;;5024277;28;20429;-42
2022/11/15 08:53:42;;;;;;;2.67;2.50;;;;;;;;;;5023125;28;20950;-43
2022/11/15 08:56:09;;;;;;;4.40;2.40;;;;;;;;;;5024108;28;20402;-42
2022/11/15 08:58:35;;;;;;;3.33;2.53;;;;;;;;;;5022494;28;20421;-43
2022/11/15 09:01:01;;;;;;;2.40;2.30;;;;;;;;;;5023662;28;20412;-42
2022/11/15 09:03:27;;;;;;;2.50;2.30;;;;;;;;;;5019874;28;20512;-43
2022/11/15 09:05:57;;;;;;;3.57;2.33;;;;;;;;;;5023114;28;20389;-42
2022/11/15 09:08:23;;;;;;;2.50;2.30;;;;;;;;;;5024385;28;20474;-42
2022/11/15 09:10:49;;;;;;;3.57;2.30;;;;;;;;;;5020368;28;20449;-42
2022/11/15 09:13:15;;;;;;;2.00;1.90;;;;;;;;;;5023348;28;20413;-42
2022/11/15 09:15:41;;;;;;;2.27;2.17;;;;;;;;;;5020631;28;20456;-42
2022/11/15 09:18:07;;;;;;;3.30;2.13;;;;;;;;;;5022219;28;20829;-42
2022/11/15 09:20:33;;;;;;;4.13;2.10;;;;;;;;;;5019018;28;20425;-42
2022/11/15 09:23:03;;;;;;;2.10;2.00;;;;;;;;;;5021910;28;20779;-42
2022/11/15 09:25:29;;;;;;;2.33;1.90;;;;;;;;;;5022997;28;20414;-43
2022/11/15 09:27:55;;;;;;;2.60;2.40;;;;;;;;;;5018902;28;20438;-42
2022/11/15 09:30:22;;;;;;;2.13;2.03;;;;;;;;;;5020111;28;20386;-42
2022/11/15 09:32:48;;;;;;;2.77;2.57;;;;;;;;;;5019815;28;20427;-42
2022/11/15 09:35:14;;;;;;;2.37;1.97;;;;;;;;;;5020667;28;20461;-42
2022/11/15 09:37:39;;;;;;;3.83;2.30;;;;;;;;;;5017195;28;20858;-43
2022/11/15 09:40:08;;;;;;;2.20;2.10;;;;;;;;;;5022595;28;20426;-42
2022/11/15 09:42:53;;;;;;;2.40;1.90;;;;;;;;;;5023368;28;20417;-42
2022/11/15 09:45:37;;;;;;;4.10;2.10;;;;;;;;;;5011350;28;20439;-43
2022/11/15 09:48:29;;;;;;;2.70;1.97;;;;;;;;;;5015146;28;20473;-42
2022/11/15 09:50:58;;;;;;;1.87;1.77;;;;;;;;;;5015197;28;20421;-43
2022/11/15 09:53:30;;;;;;;2.40;1.80;;;;;;;;;;5023225;28;20413;-42
2022/11/15 09:55:59;;;;;;;5.13;2.00;;;;;;;;;;5018417;28;20908;-42
2022/11/15 09:58:31;;;;;;;1.83;1.73;;;;;;;;;;5025903;28;20807;-43
2022/11/15 10:00:58;;;;;;;1.90;1.70;;;;;;;;;;5019617;28;20399;-42
2022/11/15 10:03:34;;;;;;;4.13;2.13;;;;;;;;;;5019725;28;20374;-43
2022/11/15 10:06:02;;;;;;;6.60;1.77;;;;;;;;;;5019600;28;20393;-42
2022/11/15 10:08:47;;;;;;;2.03;1.83;;;;;;;;;;5023276;28;20481;-43
2022/11/15 10:11:18;;;;;;;2.33;1.63;;;;;;;;;;5017962;28;20500;-43
2022/11/15 10:13:48;;;;;;;2.77;1.63;;;;;;;;;;5023176;28;20411;-43
2022/11/15 10:16:52;;;;;;;1.57;1.40;;;;;;;;;;5007080;28;20473;-42
2022/11/15 10:19:29;;;;;;;2.93;1.60;;;;;;;;;;4977963;28;20407;-42
2022/11/15 10:22:21;;;;;;;2.00;1.90;;;;;;;;;;4982747;28;20931;-42
2022/11/15 10:24:47;;;;;;;1.57;1.47;;;;;;;;;;5009707;28;20411;-42
2022/11/15 10:27:17;;;;;;;1.67;1.53;;;;;;;;;;5017203;28;20464;-42
2022/11/15 10:29:50;;;;;;;2.53;1.47;;;;;;;;;;5015268;28;20949;-43
2022/11/15 10:32:18;;;;;;;2.27;1.97;;;;;;;;;;5014846;28;20826;-43
2022/11/15 10:34:44;;;;;;;1.60;1.50;;;;;;;;;;5019538;28;20853;-43
2022/11/15 10:37:11;;;;;;;1.50;1.40;;;;;;;;;;5022830;28;20903;-43
2022/11/15 10:39:36;;;;;;;2.10;1.57;;;;;;;;;;5015049;28;20460;-43
2022/11/15 10:42:26;;;;;;;2.63;1.40;;;;;;;;;;5021156;28;20966;-42
2022/11/15 10:44:52;;;;;;;3.67;1.97;;;;;;;;;;5019913;28;20771;-43
2022/11/15 10:47:22;;;;;;;7.90;1.83;;;;;;;;;;5019327;28;20977;-42
2022/11/15 10:49:53;;;;;;;1.30;1.20;;;;;;;;;;5024637;28;20414;-42
2022/11/15 10:52:21;;;;;;;1.50;1.40;;;;;;;;;;5019358;28;20441;-43
2022/11/15 10:54:49;;;;;;;1.60;1.50;;;;;;;;;;5016684;28;20421;-43
2022/11/15 10:57:17;;;;;;;2.60;1.43;;;;;;;;;;5019122;28;20784;-43
2022/11/15 10:59:46;;;;;;;2.80;1.37;;;;;;;;;;5019289;28;20802;-43
2022/11/15 11:02:24;;;;;;;2.03;1.53;;;;;;;;;;5011274;28;20422;-44
2022/11/15 11:04:50;;;;;;;1.43;1.20;;;;;;;;;;5017371;28;20414;-44
2022/11/15 11:07:23;;;;;;;2.23;1.40;;;;;;;;;;5021890;28;20469;-43
2022/11/15 11:09:58;;;;;;;3.00;1.57;;;;;;;;;;5011827;28;20439;-43
2022/11/15 11:12:32;;;;;;;1.60;1.50;;;;;;;;;;5010840;28;20455;-43
2022/11/15 11:14:59;;;;;;;1.60;1.17;;;;;;;;;;5009075;28;20454;-43
2022/11/15 11:17:33;;;;;;;2.50;1.50;;;;;;;;;;5010716;28;20994;-43
2022/11/15 11:20:18;;;;;;;2.77;2.03;;;;;;;;;;5008445;28;20410;-43
2022/11/15 11:22:56;;;;;;;3.33;1.40;;;;;;;;;;5012842;28;20435;-43
2022/11/15 11:25:22;;;;;;;2.27;1.23;;;;;;;;;;5007936;28;20462;-44
2022/11/15 11:27:59;;;;;;;1.93;1.83;;;;;;;;;;5017208;28;20466;-43
2022/11/15 11:30:35;;;;;;;1.60;1.50;;;;;;;;;;5013647;28;20503;-43
2022/11/15 11:33:03;;;;;;;1.43;1.33;;;;;;;;;;5023757;28;21122;-43
2022/11/15 11:35:38;;;;;;;1.27;1.17;;;;;;;;;;5021555;28;20794;-43
2022/11/15 11:38:22;;;;;;;5.93;1.67;;;;;;;;;;5023981;28;20426;-43
2022/11/15 11:40:57;;;;;;;2.33;1.30;;;;;;;;;;5021901;28;20426;-43
2022/11/15 11:43:32;;;;;;;2.00;1.20;;;;;;;;;;5022270;28;20420;-43
2022/11/15 11:46:10;;;;;;;1.50;1.30;;;;;;;;;;5028829;28;20420;-43
2022/11/15 11:48:42;;;;;;;1.27;1.10;;;;;;;;;;5023134;28;20831;-43
2022/11/15 11:51:12;;;;;;;1.40;1.30;;;;;;;;;;5025427;28;20465;-43
2022/11/15 11:53:40;;;;;;;1.20;1.10;;;;;;;;;;5019625;28;20415;-43
2022/11/15 11:56:21;;;;;;;1.00;0.90;;;;;;;;;;5024760;28;20402;-43
2022/11/15 11:58:48;;;;;;;1.97;1.10;;;;;;;;;;5020678;28;20510;-44
2022/11/15 12:01:16;;;;;;;1.83;1.10;;;;;;;;;;5013855;28;20439;-43
2022/11/15 12:03:46;;;;;;;1.20;1.10;;;;;;;;;;5015548;28;20465;-44
2022/11/15 12:06:12;;;;;;;1.40;1.20;;;;;;;;;;5019328;28;20439;-43
2022/11/15 12:08:45;;;;;;;1.30;1.20;;;;;;;;;;5020084;28;20465;-43
2022/11/15 12:11:17;;;;;;;2.53;1.23;;;;;;;;;;5016108;28;20437;-43
2022/11/15 12:13:43;;;;;;;1.30;1.20;;;;;;;;;;5023962;28;20414;-42
2022/11/15 12:16:22;;;;;;;2.10;1.47;;;;;;;;;;5020583;28;20717;-43
2022/11/15 12:18:50;;;;;;;2.70;1.53;;;;;;;;;;5019026;28;20410;-43
2022/11/15 12:21:20;;;;;;;1.73;1.33;;;;;;;;;;5020684;28;20551;-43
2022/11/15 12:23:52;;;;;;;1.43;1.33;;;;;;;;;;5020827;28;20428;-43
2022/11/15 12:26:23;;;;;;;2.60;1.60;;;;;;;;;;5012070;28;20949;-43
2022/11/15 12:28:52;;;;;;;6.70;4.67;;;;;;;;;;5012868;28;20474;-42
2022/11/15 12:31:18;;;;;;;2.80;1.27;;;;;;;;;;5020303;28;20547;-43
2022/11/15 12:33:45;;;;;;;3.10;1.57;;;;;;;;;;5022299;28;20974;-42
2022/11/15 12:36:13;;;;;;;2.20;1.40;;;;;;;;;;5016790;28;20415;-42
2022/11/15 12:38:54;;;;;;;1.37;1.27;;;;;;;;;;5023773;28;20449;-42
2022/11/15 12:41:21;;;;;;;7.73;7.33;;;;;;;;;;5016717;28;20438;-43
2022/11/15 12:43:47;;;;;;;1.37;1.27;;;;;;;;;;5020595;28;20450;-42
2022/11/15 12:46:21;;;;;;;1.83;1.73;;;;;;;;;;5022925;28;20469;-43
2022/11/15 12:48:49;;;;;;;1.67;1.20;;;;;;;;;;5021587;28;20458;-43
2022/11/15 12:51:15;;;;;;;3.50;1.77;;;;;;;;;;5020705;28;20431;-42
2022/11/15 12:53:41;;;;;;;1.67;1.30;;;;;;;;;;5020858;28;20416;-42
2022/11/15 12:56:16;;;;;;;5.07;1.93;;;;;;;;;;5026378;28;20389;-42
2022/11/15 12:58:42;;;;;;;1.97;1.20;;;;;;;;;;5017021;28;20429;-42
2022/11/15 13:01:08;;;;;;;1.43;1.10;;;;;;;;;;5023969;28;20422;-42
2022/11/15 13:03:34;;;;;;;2.47;1.57;;;;;;;;;;5018472;28;20481;-42
2022/11/15 13:06:02;;;;;;;2.07;1.37;;;;;;;;;;5023092;28;20422;-43
2022/11/15 13:08:43;;;;;;;2.47;1.50;;;;;;;;;;5024365;28;20502;-44
2022/11/15 13:11:29;;;;;;;1.83;1.60;;;;;;;;;;5023286;28;20449;-42
2022/11/15 13:13:55;;;;;;;1.53;1.37;;;;;;;;;;5020293;28;20406;-42
2022/11/15 13:16:21;;;;;;;2.27;1.20;;;;;;;;;;5021932;28;20407;-43
2022/11/15 13:18:54;;;;;;;1.43;1.33;;;;;;;;;;5021894;28;20417;-44
2022/11/15 13:24:10;;;;;;;1.43;1.33;;;;;;;;;;5027084;28;20457;-42
2022/11/15 13:26:38;;;;;;;4.23;1.73;;;;;;;;;;5023965;28;20424;-42
2022/11/15 13:29:05;;;;;;;2.07;1.30;;;;;;;;;;5033691;28;20468;-43
2022/11/15 13:31:34;;;;;;;6.00;2.00;;;;;;;;;;5018329;28;20536;-44
2022/11/15 13:34:02;;;;;;;1.77;1.30;;;;;;;;;;5022523;28;20421;-43
2022/11/15 13:36:35;;;;;;;5.17;1.43;;;;;;;;;;5024210;28;20438;-43
2022/11/15 13:39:03;;;;;;;1.50;1.30;;;;;;;;;;5022811;28;20840;-43
2022/11/15 13:41:31;;;;;;;3.73;1.50;;;;;;;;;;5021509;28;21011;-43
2022/11/15 13:43:57;;;;;;;3.27;1.60;;;;;;;;;;5022854;28;20468;-43
2022/11/15 13:46:23;;;;;;;1.30;1.10;;;;;;;;;;5018461;28;20426;-43
2022/11/15 13:48:58;;;;;;;3.23;1.40;;;;;;;;;;5023086;28;20480;-43
2022/11/15 13:51:42;;;;;;;3.40;1.47;;;;;;;;;;5021752;28;20436;-42
2022/11/15 13:54:14;;;;;;;3.40;1.80;;;;;;;;;;5019769;28;20837;-43
2022/11/15 13:56:42;;;;;;;2.17;1.40;;;;;;;;;;5018744;28;20411;-43
2022/11/15 13:59:10;;;;;;;1.50;1.23;;;;;;;;;;5021196;28;20407;-43
2022/11/15 14:01:36;;;;;;;1.77;1.40;;;;;;;;;;5019868;28;20484;-43
2022/11/15 14:04:02;;;;;;;1.33;1.23;;;;;;;;;;5022178;28;20908;-43
2022/11/15 14:06:29;;;;;;;1.47;1.20;;;;;;;;;;5023741;28;20393;-42
2022/11/15 14:09:00;;;;;;;2.03;1.57;;;;;;;;;;5024459;28;20462;-42
2022/11/15 14:11:26;;;;;;;3.93;1.73;;;;;;;;;;5019240;28;20925;-42
2022/11/15 14:14:18;;;;;;;1.80;1.70;;;;;;;;;;5016362;28;20449;-42
2022/11/15 14:16:54;;;;;;;1.77;1.50;;;;;;;;;;5022389;28;20448;-42
2022/11/15 14:19:20;;;;;;;5.50;1.93;;;;;;;;;;5015929;28;20394;-44
2022/11/15 14:22:08;;;;;;;2.90;1.80;;;;;;;;;;5019037;28;20470;-43
2022/11/15 14:24:34;;;;;;;2.70;2.13;;;;;;;;;;5019422;28;20415;-42
2022/11/15 14:27:19;;;;;;;3.10;2.33;;;;;;;;;;5021032;28;20383;-43
2022/11/15 14:29:45;;;;;;;4.23;2.83;;;;;;;;;;5019754;28;20396;-43
2022/11/15 14:32:16;;;;;;;2.30;2.03;;;;;;;;;;5023141;28;20932;-42
2022/11/15 14:34:42;;;;;;;3.13;2.10;;;;;;;;;;5021471;28;20392;-44
2022/11/15 14:37:22;;;;;;;3.97;2.13;;;;;;;;;;5024312;28;20413;-43
2022/11/15 14:39:48;;;;;;;2.23;2.03;;;;;;;;;;5022255;28;20461;-42
2022/11/15 14:42:14;;;;;;;2.53;2.10;;;;;;;;;;5016512;28;20432;-43
2022/11/15 14:44:40;;;;;;;3.43;2.50;;;;;;;;;;5023703;28;20496;-43
2022/11/15 14:47:06;;;;;;;3.37;2.50;;;;;;;;;;5021122;28;20414;-42
2022/11/15 14:49:32;;;;;;;2.40;2.20;;;;;;;;;;5020902;28;20468;-42
2022/11/15 14:51:58;;;;;;;3.50;2.33;;;;;;;;;;5020514;28;20423;-43
2022/11/15 14:54:23;;;;;;;3.57;1.90;;;;;;;;;;5020406;28;20422;-43
2022/11/15 14:56:53;;;;;;;6.10;2.43;;;;;;;;;;5016466;28;20415;-42
2022/11/15 14:59:18;;;;;;;2.33;2.10;;;;;;;;;;5018367;28;20449;-42
2022/11/15 15:01:44;;;;;;;3.37;2.30;;;;;;;;;;5026466;28;20396;-42
2022/11/15 15:04:11;;;;;;;2.70;2.50;;;;;;;;;;5023809;28;20537;-43
2022/11/15 15:06:37;;;;;;;3.27;2.40;;;;;;;;;;5025040;28;20422;-43
2022/11/15 15:09:03;;;;;;;4.40;2.77;;;;;;;;;;5040694;28;20454;-44